createdAt,value
2023-03-29T00:00:29.597Z,11.43
2023-03-29T00:03:14.941Z,9.50
2023-03-29T00:05:41.868Z,8.63
2023-03-29T00:08:08.969Z,9.82
2023-03-29T00:10:35.793Z,9.65
2023-03-29T00:13:03.250Z,7.80
2023-03-29T00:15:30.161Z,9.20
2023-03-29T00:17:57.651Z,9.50
2023-03-29T00:20:24.503Z,8.27
2023-03-29T00:22:51.807Z,8.93
2023-03-29T00:25:18.676Z,8.93
2023-03-29T00:27:46.033Z,10.32
2023-03-29T00:30:13.985Z,10.00
2023-03-29T00:32:41.313Z,10.63
2023-03-29T00:35:09.153Z,10.32
2023-03-29T00:37:36.315Z,10.82
2023-03-29T00:40:08.549Z,9.43
2023-03-29T00:42:35.865Z,9.60
2023-03-29T00:45:21.139Z,9.68
2023-03-29T00:48:02.547Z,9.82
2023-03-29T00:50:39.468Z,9.85
2023-03-29T00:53:09.177Z,8.80
2023-03-29T00:55:38.826Z,11.23
2023-03-29T00:58:08.765Z,11.55
2023-03-29T01:00:40.466Z,9.45
2023-03-29T01:05:44.771Z,10.25
2023-03-29T01:08:18.650Z,11.95
2023-03-29T01:10:51.365Z,13.80
2023-03-29T01:13:27.318Z,15.55
2023-03-29T01:15:54.986Z,12.88
2023-03-29T01:18:23.158Z,15.30
2023-03-29T01:20:51.014Z,16.80
2023-03-29T01:23:45.859Z,21.17
2023-03-29T01:26:34.466Z,21.20
2023-03-29T01:29:07.859Z,22.30
2023-03-29T01:31:38.562Z,19.83
2023-03-29T01:34:30.464Z,20.17
2023-03-29T01:37:12.649Z,17.75
2023-03-29T01:39:40.090Z,19.25
2023-03-29T01:42:28.480Z,21.90
2023-03-29T01:45:22.823Z,21.13
2023-03-29T01:48:00.715Z,18.40
2023-03-29T01:50:54.199Z,20.60
2023-03-29T01:53:39.445Z,20.88
2023-03-29T01:56:12.234Z,22.63
2023-03-29T01:58:44.827Z,18.75
2023-03-29T02:01:17.782Z,19.85
2023-03-29T02:03:50.004Z,19.73
2023-03-29T02:06:21.393Z,17.25
2023-03-29T02:08:48.672Z,15.68
2023-03-29T02:11:15.938Z,15.63
2023-03-29T02:13:42.815Z,12.63
2023-03-29T02:16:12.518Z,12.80
2023-03-29T02:18:48.798Z,16.20
2023-03-29T02:21:31.689Z,13.35
2023-03-29T02:24:02.180Z,13.10
2023-03-29T02:26:29.460Z,12.77
2023-03-29T02:28:56.570Z,12.82
2023-03-29T02:31:38.471Z,13.90
2023-03-29T02:34:20.268Z,12.02
2023-03-29T02:36:54.850Z,11.77
2023-03-29T02:39:24.505Z,11.07
2023-03-29T02:41:52.985Z,12.55
2023-03-29T02:44:27.272Z,12.95
2023-03-29T02:46:59.056Z,12.45
2023-03-29T02:49:26.794Z,14.20
2023-03-29T02:51:57.385Z,11.27
2023-03-29T02:54:30.047Z,13.00
2023-03-29T02:57:00.724Z,15.32
2023-03-29T02:59:30.059Z,17.25
2023-03-29T03:01:57.386Z,17.75
2023-03-29T03:04:25.516Z,21.83
2023-03-29T03:06:52.820Z,21.55
2023-03-29T03:09:19.779Z,27.98
2023-03-29T03:11:46.891Z,25.02
2023-03-29T03:14:13.762Z,25.80
2023-03-29T03:16:41.134Z,26.50
2023-03-29T03:19:07.936Z,26.60
2023-03-29T03:21:37.927Z,23.58
2023-03-29T03:24:05.669Z,25.65
2023-03-29T03:26:33.558Z,22.27
2023-03-29T03:29:00.970Z,21.40
2023-03-29T03:31:28.636Z,21.88
2023-03-29T03:33:55.569Z,20.85
2023-03-29T03:36:26.416Z,19.38
2023-03-29T03:38:53.515Z,20.25
2023-03-29T03:41:20.769Z,20.42
2023-03-29T03:43:49.060Z,18.85
2023-03-29T03:46:17.338Z,19.02
2023-03-29T03:48:46.144Z,19.02
2023-03-29T03:51:13.758Z,20.40
2023-03-29T03:53:40.892Z,18.73
2023-03-29T03:56:11.575Z,21.77
2023-03-29T03:58:39.081Z,20.17
2023-03-29T04:01:08.473Z,19.25
2023-03-29T04:03:36.016Z,22.20
2023-03-29T04:06:04.472Z,24.15
2023-03-29T04:08:32.080Z,32.65
2023-03-29T04:11:00.126Z,29.85
2023-03-29T04:13:27.691Z,29.95
2023-03-29T04:15:57.689Z,32.50
2023-03-29T04:18:26.352Z,31.45
2023-03-29T04:20:53.519Z,34.10
2023-03-29T04:23:20.451Z,38.28
2023-03-29T04:25:47.742Z,35.97
2023-03-29T04:28:14.580Z,37.78
2023-03-29T04:30:41.726Z,35.33
2023-03-29T04:33:08.633Z,37.97
2023-03-29T04:35:35.984Z,30.20
2023-03-29T04:38:04.710Z,26.30
2023-03-29T04:40:31.775Z,24.63
2023-03-29T04:43:00.163Z,23.92
2023-03-29T04:45:27.354Z,20.80
2023-03-29T04:47:57.155Z,21.15
2023-03-29T04:50:24.450Z,25.00
2023-03-29T04:52:51.516Z,23.38
2023-03-29T04:55:18.705Z,31.05
2023-03-29T04:57:45.548Z,39.00
2023-03-29T05:00:16.980Z,31.75
2023-03-29T05:02:45.408Z,35.55
2023-03-29T05:05:14.069Z,41.03
2023-03-29T05:07:40.979Z,37.80
2023-03-29T05:10:09.354Z,34.33
2023-03-29T05:12:36.907Z,32.25
2023-03-29T05:15:05.318Z,40.97
2023-03-29T05:17:32.572Z,39.55
2023-03-29T05:19:59.999Z,35.67
2023-03-29T05:22:28.519Z,34.53
2023-03-29T05:24:55.616Z,38.13
2023-03-29T05:27:23.048Z,36.33
2023-03-29T05:29:50.236Z,39.65
2023-03-29T05:32:17.175Z,33.97
2023-03-29T05:34:45.178Z,35.30
2023-03-29T05:37:13.553Z,35.30
2023-03-29T05:39:40.930Z,36.78
2023-03-29T05:42:07.939Z,36.97
2023-03-29T05:44:35.121Z,36.20
2023-03-29T05:47:02.240Z,28.25
2023-03-29T05:49:29.469Z,27.70
2023-03-29T05:51:57.233Z,30.55
2023-03-29T05:54:25.731Z,28.65
2023-03-29T05:56:52.572Z,27.45
2023-03-29T05:59:20.217Z,27.73
2023-03-29T06:01:47.072Z,25.27
2023-03-29T06:04:15.210Z,23.92
2023-03-29T06:06:42.238Z,23.08
2023-03-29T06:09:09.865Z,25.00
2023-03-29T06:11:36.837Z,23.75
2023-03-29T06:14:04.650Z,26.42
2023-03-29T06:16:32.665Z,26.85
2023-03-29T06:18:59.904Z,23.88
2023-03-29T06:21:28.223Z,26.23
2023-03-29T06:23:55.305Z,26.05
2023-03-29T06:26:22.392Z,24.80
2023-03-29T06:28:52.080Z,26.05
2023-03-29T06:31:20.151Z,24.15
2023-03-29T06:33:47.414Z,25.45
2023-03-29T06:36:16.357Z,25.20
2023-03-29T06:38:47.500Z,23.95
2023-03-29T06:41:16.482Z,25.38
2023-03-29T06:43:44.029Z,26.48
2023-03-29T06:46:12.444Z,23.48
2023-03-29T06:48:41.565Z,24.95
2023-03-29T06:51:08.705Z,23.77
2023-03-29T06:53:36.768Z,24.27
2023-03-29T06:56:09.288Z,23.27
2023-03-29T06:58:37.278Z,20.85
2023-03-29T07:01:05.198Z,22.05
2023-03-29T07:03:35.141Z,23.83
2023-03-29T07:06:09.899Z,21.25
2023-03-29T07:08:43.551Z,22.00
2023-03-29T07:11:16.305Z,22.65
2023-03-29T07:13:43.993Z,20.60
2023-03-29T07:16:12.919Z,24.83
2023-03-29T07:18:41.728Z,25.85
2023-03-29T07:21:10.603Z,23.73
2023-03-29T07:23:38.107Z,24.92
2023-03-29T07:26:08.181Z,23.27
2023-03-29T07:28:43.018Z,21.65
2023-03-29T07:31:13.491Z,18.15
2023-03-29T07:33:40.914Z,18.27
2023-03-29T07:36:08.243Z,81.57
2023-03-29T07:38:37.018Z,88.80
2023-03-29T07:41:05.953Z,29.77
2023-03-29T07:43:34.282Z,16.95
2023-03-29T07:46:06.038Z,12.45
2023-03-29T07:48:33.981Z,28.73
2023-03-29T07:51:01.507Z,14.07
2023-03-29T07:53:29.864Z,58.22
2023-03-29T07:55:57.314Z,30.10
2023-03-29T07:58:24.603Z,12.25
2023-03-29T08:00:51.623Z,19.45
2023-03-29T08:03:19.064Z,13.43
2023-03-29T08:05:46.056Z,12.98
2023-03-29T08:08:14.308Z,10.93
2023-03-29T08:10:42.844Z,17.00
2023-03-29T08:13:10.498Z,9.10
2023-03-29T08:15:39.560Z,11.48
2023-03-29T08:18:08.202Z,10.18
2023-03-29T08:20:35.401Z,14.40
2023-03-29T08:23:02.611Z,7.03
2023-03-29T08:25:29.835Z,18.35
2023-03-29T08:27:57.248Z,13.18
2023-03-29T08:30:24.336Z,11.00
2023-03-29T08:32:55.144Z,13.23
2023-03-29T08:35:22.792Z,10.07
2023-03-29T08:37:49.983Z,7.18
2023-03-29T08:40:30.445Z,15.00
2023-03-29T08:43:15.991Z,10.98
2023-03-29T08:46:34.518Z,13.52
2023-03-29T08:49:10.013Z,28.42
2023-03-29T08:51:45.699Z,20.23
2023-03-29T08:54:17.877Z,13.77
2023-03-29T08:56:47.926Z,11.75
2023-03-29T08:59:35.498Z,14.90
2023-03-29T09:02:10.232Z,18.13
2023-03-29T09:04:40.598Z,7.57
2023-03-29T09:07:12.096Z,11.18
2023-03-29T09:09:39.404Z,13.18
2023-03-29T09:12:36.536Z,10.63
2023-03-29T09:15:41.378Z,12.00
2023-03-29T09:18:35.890Z,4.40
2023-03-29T09:21:09.693Z,11.18
2023-03-29T09:24:04.064Z,5.45
2023-03-29T09:26:41.069Z,4.55
2023-03-29T09:29:13.961Z,7.47
2023-03-29T09:31:44.816Z,14.20
2023-03-29T09:34:21.162Z,11.25
2023-03-29T09:37:05.854Z,5.05
2023-03-29T09:39:32.757Z,7.63
2023-03-29T09:42:09.339Z,8.88
2023-03-29T09:44:44.641Z,9.23
2023-03-29T09:47:21.634Z,5.07
2023-03-29T09:49:52.392Z,6.32
2023-03-29T09:52:23.829Z,9.45
2023-03-29T09:54:50.885Z,6.93
2023-03-29T09:57:20.149Z,5.07
2023-03-29T09:59:49.026Z,7.60
2023-03-29T10:02:20.752Z,11.40
2023-03-29T10:04:55.486Z,11.77
2023-03-29T10:07:24.681Z,7.20
2023-03-29T10:09:56.500Z,10.93
2023-03-29T10:12:23.775Z,6.90
2023-03-29T10:15:13.897Z,6.95
2023-03-29T10:20:19.926Z,3.95
2023-03-29T10:22:56.217Z,5.78
2023-03-29T10:25:29.924Z,4.20
2023-03-29T10:28:04.984Z,5.25
2023-03-29T10:30:36.188Z,4.38
2023-03-29T10:33:04.199Z,4.97
2023-03-29T10:35:38.337Z,4.70
2023-03-29T10:38:10.617Z,4.80
2023-03-29T10:40:45.182Z,4.55
2023-03-29T10:43:20.806Z,6.47
2023-03-29T10:45:53.945Z,7.28
2023-03-29T10:48:28.527Z,6.18
2023-03-29T10:51:00.208Z,6.38
2023-03-29T10:53:30.159Z,5.10
2023-03-29T10:56:04.586Z,6.00
2023-03-29T10:58:31.952Z,4.20
2023-03-29T11:00:59.231Z,6.13
2023-03-29T11:04:06.758Z,3.13
2023-03-29T11:07:06.529Z,4.25
2023-03-29T11:10:08.225Z,3.10
2023-03-29T11:12:39.369Z,4.05
2023-03-29T11:15:45.445Z,4.00
2023-03-29T11:18:27.776Z,3.83
2023-03-29T11:21:12.613Z,3.85
2023-03-29T11:23:52.775Z,3.53
2023-03-29T11:26:51.997Z,3.67
2023-03-29T11:29:23.004Z,3.63
2023-03-29T11:32:15.660Z,4.25
2023-03-29T11:35:07.086Z,4.10
2023-03-29T11:38:06.909Z,3.95
2023-03-29T11:40:45.418Z,3.40
2023-03-29T11:43:24.563Z,3.28
2023-03-29T11:46:03.690Z,3.92
2023-03-29T11:48:41.322Z,3.40
2023-03-29T11:51:21.809Z,3.92
2023-03-29T11:54:14.476Z,3.17
2023-03-29T11:57:11.200Z,3.28
2023-03-29T11:59:56.711Z,3.75
2023-03-29T12:02:40.867Z,4.22
2023-03-29T12:05:37.000Z,3.28
2023-03-29T12:08:09.863Z,4.28
2023-03-29T12:10:53.355Z,4.00
2023-03-29T12:13:39.231Z,4.07
2023-03-29T12:16:24.708Z,4.18
2023-03-29T12:18:56.648Z,4.30
2023-03-29T12:21:29.216Z,4.25
2023-03-29T12:23:58.468Z,4.45
2023-03-29T12:26:53.892Z,3.70
2023-03-29T12:29:29.152Z,4.28
2023-03-29T12:32:43.578Z,4.47
2023-03-29T12:35:25.657Z,4.30
2023-03-29T12:38:19.626Z,3.90
2023-03-29T12:41:02.944Z,3.47
2023-03-29T12:43:40.750Z,3.85
2023-03-29T12:46:11.891Z,4.20
2023-03-29T12:48:44.954Z,3.78
2023-03-29T12:51:45.526Z,3.90
2023-03-29T12:54:28.316Z,4.07
2023-03-29T12:57:20.556Z,3.40
2023-03-29T12:59:49.771Z,4.00
2023-03-29T13:02:19.662Z,3.63
2023-03-29T13:04:53.395Z,4.57
2023-03-29T13:07:23.352Z,3.65
2023-03-29T13:09:53.889Z,4.38
2023-03-29T13:12:46.183Z,3.65
2023-03-29T13:15:19.201Z,4.10
2023-03-29T13:18:13.143Z,4.45
2023-03-29T13:21:21.712Z,4.90
2023-03-29T13:24:00.678Z,4.28
2023-03-29T13:26:50.610Z,3.75
2023-03-29T13:29:29.854Z,4.90
2023-03-29T13:32:48.550Z,4.45
2023-03-29T13:35:22.357Z,4.20
2023-03-29T13:37:58.146Z,5.13
2023-03-29T13:40:32.160Z,4.60
2023-03-29T13:43:09.239Z,4.68
2023-03-29T13:45:37.675Z,4.50
2023-03-29T13:48:30.090Z,4.13
2023-03-29T13:51:12.356Z,5.05
2023-03-29T13:53:48.082Z,4.00
2023-03-29T13:56:39.745Z,4.47
2023-03-29T13:59:19.053Z,3.80
2023-03-29T14:01:55.801Z,3.38
2023-03-29T14:04:49.887Z,4.88
2023-03-29T14:07:33.690Z,6.90
2023-03-29T14:10:22.152Z,9.95
2023-03-29T14:13:18.882Z,20.65
2023-03-29T14:16:25.632Z,82.43
2023-03-29T14:19:14.560Z,49.00
2023-03-29T14:22:00.165Z,103.93
2023-03-29T14:24:35.819Z,54.92
2023-03-29T14:27:08.027Z,32.05
2023-03-29T14:29:42.074Z,13.00
2023-03-29T14:32:18.237Z,5.45
2023-03-29T14:34:51.454Z,5.13
2023-03-29T14:37:27.073Z,6.05
2023-03-29T14:39:55.045Z,5.38
2023-03-29T14:42:28.215Z,8.40
2023-03-29T14:45:06.094Z,3.92
2023-03-29T14:47:34.097Z,8.00
2023-03-29T14:50:01.930Z,38.97
2023-03-29T14:52:30.742Z,29.27
2023-03-29T14:55:02.825Z,6.03
2023-03-29T14:57:35.731Z,5.82
2023-03-29T15:00:28.394Z,4.43
2023-03-29T15:03:01.835Z,6.00
2023-03-29T15:05:34.013Z,4.85
2023-03-29T15:08:02.904Z,4.43
2023-03-29T15:10:33.466Z,3.67
2023-03-29T15:13:04.343Z,4.15
2023-03-29T15:15:34.789Z,4.80
2023-03-29T15:18:04.504Z,5.63
2023-03-29T15:20:39.666Z,16.92
2023-03-29T15:23:18.544Z,8.73
2023-03-29T15:25:54.102Z,6.15
2023-03-29T15:28:32.943Z,6.47
2023-03-29T15:31:11.960Z,11.07
2023-03-29T15:33:41.921Z,9.23
2023-03-29T15:36:11.609Z,14.40
2023-03-29T15:38:44.660Z,17.70
2023-03-29T15:41:13.991Z,19.20
2023-03-29T15:43:42.421Z,15.75
2023-03-29T15:46:12.401Z,14.02
2023-03-29T15:48:39.768Z,17.55
2023-03-29T15:51:07.580Z,44.15
2023-03-29T15:53:35.824Z,11.23
2023-03-29T15:56:07.470Z,23.25
2023-03-29T15:58:35.681Z,18.20
2023-03-29T16:01:32.700Z,21.58
2023-03-29T16:04:16.023Z,11.23
2023-03-29T16:06:44.455Z,32.33
2023-03-29T16:09:14.359Z,12.15
2023-03-29T16:11:42.944Z,16.83
2023-03-29T16:14:31.636Z,9.38
2023-03-29T16:17:01.120Z,7.50
2023-03-29T16:19:30.052Z,7.85
2023-03-29T16:21:58.466Z,6.18
2023-03-29T16:24:32.060Z,8.73
2023-03-29T16:26:59.941Z,9.60
2023-03-29T16:29:27.872Z,8.15
2023-03-29T16:31:55.241Z,8.45
2023-03-29T16:34:22.960Z,9.10
2023-03-29T16:36:50.718Z,7.82
2023-03-29T16:39:18.442Z,8.35
2023-03-29T16:41:48.494Z,7.72
2023-03-29T16:44:20.049Z,7.78
2023-03-29T16:46:48.967Z,8.63
2023-03-29T16:49:18.193Z,8.82
2023-03-29T16:51:47.067Z,9.35
2023-03-29T16:54:15.589Z,9.43
2023-03-29T16:56:42.856Z,10.27
2023-03-29T16:59:10.896Z,10.20
2023-03-29T17:01:38.902Z,10.75
2023-03-29T17:04:07.192Z,9.73
2023-03-29T17:06:34.386Z,12.95
2023-03-29T17:09:01.666Z,9.68
2023-03-29T17:11:29.093Z,8.23
2023-03-29T17:13:58.287Z,8.25
2023-03-29T17:16:28.875Z,6.82
2023-03-29T17:19:01.407Z,5.97
2023-03-29T17:21:29.629Z,6.22
2023-03-29T17:23:57.027Z,5.97
2023-03-29T17:26:24.364Z,6.80
2023-03-29T17:28:51.939Z,9.60
2023-03-29T17:31:19.813Z,11.65
2023-03-29T17:34:12.438Z,11.82
2023-03-29T17:36:41.303Z,11.88
2023-03-29T17:39:09.727Z,11.43
2023-03-29T17:41:36.905Z,10.15
2023-03-29T17:44:04.167Z,11.85
2023-03-29T17:46:31.649Z,10.85
2023-03-29T17:49:00.427Z,10.88
2023-03-29T17:51:27.805Z,11.63
2023-03-29T17:53:56.794Z,10.25
2023-03-29T17:56:24.161Z,18.58
2023-03-29T17:58:52.395Z,10.52
2023-03-29T18:01:20.391Z,11.38
2023-03-29T18:03:48.356Z,10.57
2023-03-29T18:06:19.992Z,9.63
2023-03-29T18:08:47.376Z,9.57
2023-03-29T18:11:22.440Z,10.68
2023-03-29T18:13:51.460Z,11.73
2023-03-29T18:16:20.138Z,12.93
2023-03-29T18:18:48.200Z,13.65
2023-03-29T18:21:16.692Z,13.73
2023-03-29T18:23:48.640Z,12.88
2023-03-29T18:28:47.408Z,11.88
2023-03-29T18:31:15.496Z,32.15
2023-03-29T18:33:49.515Z,17.17
2023-03-29T18:36:16.922Z,34.13
2023-03-29T18:38:44.376Z,45.22
2023-03-29T18:41:12.791Z,55.92
2023-03-29T18:43:40.725Z,54.35
2023-03-29T18:46:08.363Z,23.50
2023-03-29T18:48:39.036Z,17.70
2023-03-29T18:51:07.546Z,22.23
2023-03-29T18:53:36.138Z,19.20
2023-03-29T18:56:04.473Z,21.48
2023-03-29T18:58:33.377Z,55.92
2023-03-29T19:01:05.499Z,23.88
2023-03-29T19:03:34.590Z,33.63
2023-03-29T19:06:02.580Z,50.80
2023-03-29T19:08:29.963Z,29.70
2023-03-29T19:11:04.941Z,15.20
2023-03-29T19:13:32.148Z,25.33
2023-03-29T19:15:59.157Z,36.15
2023-03-29T19:18:26.589Z,19.13
2023-03-29T19:20:56.430Z,21.73
2023-03-29T19:23:28.409Z,13.32
2023-03-29T19:25:57.542Z,14.30
2023-03-29T19:28:25.465Z,13.13
2023-03-29T19:30:52.980Z,16.40
2023-03-29T19:33:20.470Z,18.95
2023-03-29T19:35:49.849Z,15.88
2023-03-29T19:38:17.221Z,23.30
2023-03-29T19:40:46.324Z,14.63
2023-03-29T19:43:16.588Z,16.98
2023-03-29T19:45:44.298Z,13.70
2023-03-29T19:48:21.129Z,14.52
2023-03-29T19:50:49.185Z,17.58
2023-03-29T19:53:16.044Z,12.15
2023-03-29T19:55:45.245Z,11.30
2023-03-29T19:58:13.115Z,13.27
2023-03-29T20:00:41.978Z,12.43
2023-03-29T20:03:14.077Z,12.25
2023-03-29T20:05:41.431Z,11.80
2023-03-29T20:08:08.907Z,12.60
2023-03-29T20:10:36.707Z,11.65
2023-03-29T20:13:05.771Z,14.90
2023-03-29T20:15:32.919Z,23.90
2023-03-29T20:18:00.475Z,14.48
2023-03-29T20:20:28.482Z,24.67
2023-03-29T20:22:58.580Z,27.25
2023-03-29T20:25:25.970Z,18.60
2023-03-29T20:27:53.264Z,15.38
2023-03-29T20:30:20.659Z,18.33
2023-03-29T20:32:47.667Z,22.25
2023-03-29T20:35:14.888Z,15.00
2023-03-29T20:37:41.792Z,14.02
2023-03-29T20:40:11.099Z,11.52
2023-03-29T20:42:38.826Z,10.95
2023-03-29T20:45:07.869Z,10.68
2023-03-29T20:47:42.246Z,11.32
2023-03-29T20:50:10.643Z,10.75
2023-03-29T20:52:37.854Z,11.10
2023-03-29T20:55:05.738Z,10.25
2023-03-29T20:57:32.636Z,9.95
2023-03-29T20:59:59.717Z,12.20
2023-03-29T21:02:26.645Z,9.00
2023-03-29T21:04:53.983Z,12.15
2023-03-29T21:07:21.632Z,12.57
2023-03-29T21:09:50.068Z,12.52
2023-03-29T21:12:17.457Z,12.10
2023-03-29T21:14:44.901Z,12.40
2023-03-29T21:17:11.815Z,12.60
2023-03-29T21:19:39.597Z,12.50
2023-03-29T21:22:06.846Z,12.07
2023-03-29T21:24:36.606Z,12.20
2023-03-29T21:27:03.752Z,13.05
2023-03-29T21:29:30.884Z,12.90
2023-03-29T21:31:57.883Z,10.80
2023-03-29T21:34:25.129Z,11.10
2023-03-29T21:36:52.275Z,11.38
2023-03-29T21:39:19.500Z,12.35
2023-03-29T21:41:46.554Z,11.02
2023-03-29T21:44:13.816Z,12.80
2023-03-29T21:46:40.937Z,13.15
2023-03-29T21:49:08.185Z,12.93
2023-03-29T21:51:34.950Z,12.18
2023-03-29T21:54:02.090Z,12.80
2023-03-29T21:56:28.988Z,10.85
2023-03-29T21:58:56.033Z,13.20
2023-03-29T22:01:22.974Z,11.77
2023-03-29T22:03:50.451Z,12.50
2023-03-29T22:06:17.722Z,11.95
2023-03-29T22:08:46.865Z,12.35
2023-03-29T22:11:15.615Z,14.73
2023-03-29T22:13:43.884Z,12.15
2023-03-29T22:16:18.734Z,12.48
2023-03-29T22:18:49.687Z,13.30
2023-03-29T22:21:24.217Z,11.60
2023-03-29T22:23:54.127Z,32.70
2023-03-29T22:26:23.576Z,92.47
2023-03-29T22:28:51.755Z,124.20
2023-03-29T22:31:20.670Z,108.28
2023-03-29T22:33:48.487Z,110.47
2023-03-29T22:36:21.948Z,46.28
2023-03-29T22:38:50.305Z,26.98
2023-03-29T22:41:18.411Z,13.52
2023-03-29T22:43:46.112Z,13.13
2023-03-29T22:46:14.218Z,12.80
2023-03-29T22:48:41.740Z,18.75
2023-03-29T22:51:08.663Z,12.70
2023-03-29T22:53:35.913Z,35.28
2023-03-29T22:56:03.738Z,42.17
2023-03-29T22:58:31.212Z,16.75
2023-03-29T23:00:58.098Z,22.25
2023-03-29T23:03:25.287Z,32.13
2023-03-29T23:05:57.039Z,27.88
2023-03-29T23:08:25.013Z,23.35
2023-03-29T23:10:52.681Z,23.38
2023-03-29T23:13:24.267Z,17.85
2023-03-29T23:18:21.178Z,9.52
2023-03-29T23:20:49.170Z,10.02
2023-03-29T23:23:17.949Z,7.50
2023-03-29T23:25:46.599Z,15.65
2023-03-29T23:28:14.924Z,11.35
2023-03-29T23:30:41.706Z,11.88
2023-03-29T23:33:10.581Z,14.02
2023-03-29T23:35:37.880Z,9.80
2023-03-29T23:38:05.664Z,13.63
2023-03-29T23:40:33.369Z,13.18
2023-03-29T23:43:00.594Z,12.73
2023-03-29T23:45:30.378Z,9.32
2023-03-29T23:47:58.624Z,8.20
2023-03-29T23:50:28.611Z,14.02
2023-03-29T23:52:55.853Z,9.48
2023-03-29T23:55:22.707Z,10.23
2023-03-29T23:57:49.814Z,7.95
